Airfield :







YOU CAN JOIN US ON...

 
LOGIN :

Register | Disclaimer

   EN    FR    IT 

 









Legend :    VFR   Marginal VFR   IFR   Intensive IFR   Very Intensive IFR
Visi :
Ceiling :
>= 8 km
>= 3000ft
5 to 8 km
1000 to 3000 ft
1500m to 5 km
500 to 1000 ft
800 to 1500m
200 to 500 ft
< 800m
< 200 ft
Symbols :   Thunderstorms  Fog  Heavy snow  Heavy precipitations  Wind > 20 kt







- Airport Elevation : 1442 ft
- IATA code : ZUM


CZUM - Churchill Falls

CURRENT METAR :
  • 181700Z AUTO /////KT RMK WND MISG CLD MISG WX MISG VIS MISG PCPN MISG PRES MISG T MISG TD MISG ICG MISG DENSITY ALT MISG

EXPIRED METARs :
  • 181600Z AUTO /////KT RMK WND MISG CLD MISG WX MISG VIS MISG PCPN MISG PRES MISG T MISG TD MISG ICG MISG DENSITY ALT MISG
  • 181500Z AUTO 33008G15KT 310V020 9SM OVC035 02/M05 A3012 RMK SLP222
  • 181400Z AUTO 32008KT 300V030 9SM OVC035 02/M05 A3011 RMK SLP219

TAF TAF CZUM
Valid from the 18 at 14:00 until the 19 at 02:00 UTC


181338Z 1814/1902 03008KT P6SM SCT020 BKN040
BECMG 1900/1902 10008KT RMK FCST BASED ON AUTO OBS. NXT FCST BY 182000Z
CZQX FIR / North America



MET'MAP, your aeronautical weather chart ! - Copyright ORBIFLY December 2007 - Disclaimer

ORBIFLY MET'MAP TEAM :

Programming & Development : Alexandra Zaïnal
Concept & Development : Baudouin d'Aumeries
Co-Development & Prog : Marc-Olivier Méhu
Technical & hardware support : Manuel Goepfert

Contact : metmap@orbifly.com




SOURCES & CREDITS :

   NOAA